sensor_id;sensor_type;location;lat;lon;timestamp;pressure;altitude;pressure_sealevel;temperature;humidity
58373;BME280;44177;43.356;27.672;2024-03-08T00:01:30;98448.47;;;3.52;100.00
58373;BME280;44177;43.356;27.672;2024-03-08T00:03:56;98452.78;;;3.53;100.00
58373;BME280;44177;43.356;27.672;2024-03-08T00:06:21;98454.06;;;3.56;100.00
58373;BME280;44177;43.356;27.672;2024-03-08T00:08:47;98454.28;;;3.59;100.00
58373;BME280;44177;43.356;27.672;2024-03-08T00:11:12;98423.47;;;3.46;100.00
58373;BME280;44177;43.356;27.672;2024-03-08T00:13:38;98433.06;;;3.53;100.00
58373;BME280;44177;43.356;27.672;2024-03-08T00:16:03;98437.59;;;3.57;100.00
58373;BME280;44177;43.356;27.672;2024-03-08T00:18:29;98430.91;;;3.55;100.00
58373;BME280;44177;43.356;27.672;2024-03-08T00:20:54;98433.50;;;3.60;100.00
58373;BME280;44177;43.356;27.672;2024-03-08T00:23:20;98416.69;;;3.49;100.00
58373;BME280;44177;43.356;27.672;2024-03-08T00:25:46;98394.47;;;3.38;100.00
58373;BME280;44177;43.356;27.672;2024-03-08T00:28:11;98420.09;;;3.55;100.00
58373;BME280;44177;43.356;27.672;2024-03-08T00:30:40;98340.50;;;3.05;100.00
58373;BME280;44177;43.356;27.672;2024-03-08T00:33:05;98418.06;;;3.46;100.00
58373;BME280;44177;43.356;27.672;2024-03-08T00:35:31;98413.72;;;3.51;100.00
58373;BME280;44177;43.356;27.672;2024-03-08T00:37:56;98405.25;;;3.38;100.00
58373;BME280;44177;43.356;27.672;2024-03-08T00:40:22;98406.06;;;3.39;100.00
58373;BME280;44177;43.356;27.672;2024-03-08T00:42:48;98390.25;;;3.32;100.00
58373;BME280;44177;43.356;27.672;2024-03-08T00:45:13;98383.56;;;3.29;100.00
58373;BME280;44177;43.356;27.672;2024-03-08T00:47:38;98402.47;;;3.43;100.00
58373;BME280;44177;43.356;27.672;2024-03-08T00:50:04;98405.25;;;3.38;100.00
58373;BME280;44177;43.356;27.672;2024-03-08T00:52:30;98403.22;;;3.30;100.00
58373;BME280;44177;43.356;27.672;2024-03-08T00:54:56;98409.22;;;3.27;100.00
58373;BME280;44177;43.356;27.672;2024-03-08T00:57:21;98413.69;;;3.31;100.00
58373;BME280;44177;43.356;27.672;2024-03-08T00:59:47;98402.56;;;3.38;100.00
58373;BME280;44177;43.356;27.672;2024-03-08T01:02:13;98399.50;;;3.45;100.00
58373;BME280;44177;43.356;27.672;2024-03-08T01:04:38;98399.91;;;3.52;100.00
58373;BME280;44177;43.356;27.672;2024-03-08T01:07:04;98409.41;;;3.50;100.00
58373;BME280;44177;43.356;27.672;2024-03-08T01:09:29;98409.03;;;3.37;100.00
58373;BME280;44177;43.356;27.672;2024-03-08T01:11:55;98404.63;;;3.27;100.00
58373;BME280;44177;43.356;27.672;2024-03-08T01:14:22;98406.34;;;3.37;100.00
58373;BME280;44177;43.356;27.672;2024-03-08T01:16:48;98406.56;;;3.41;100.00
58373;BME280;44177;43.356;27.672;2024-03-08T01:19:14;98405.03;;;3.35;100.00
58373;BME280;44177;43.356;27.672;2024-03-08T01:21:40;98403.22;;;3.30;100.00
58373;BME280;44177;43.356;27.672;2024-03-08T01:24:06;98403.81;;;3.27;100.00
58373;BME280;44177;43.356;27.672;2024-03-08T01:26:31;98405.91;;;3.30;100.00
58373;BME280;44177;43.356;27.672;2024-03-08T01:28:59;98407.59;;;3.26;100.00
58373;BME280;44177;43.356;27.672;2024-03-08T01:31:25;98406.44;;;3.32;100.00
58373;BME280;44177;43.356;27.672;2024-03-08T01:33:50;98414.53;;;3.32;100.00
58373;BME280;44177;43.356;27.672;2024-03-08T01:36:15;98408.81;;;3.34;100.00
58373;BME280;44177;43.356;27.672;2024-03-08T01:38:42;98413.78;;;3.26;100.00
58373;BME280;44177;43.356;27.672;2024-03-08T01:41:07;98415.91;;;3.29;100.00
58373;BME280;44177;43.356;27.672;2024-03-08T01:43:34;98390.56;;;3.11;100.00
58373;BME280;44177;43.356;27.672;2024-03-08T01:46:00;98417.16;;;3.18;100.00
58373;BME280;44177;43.356;27.672;2024-03-08T01:48:27;98416.78;;;3.25;100.00
58373;BME280;44177;43.356;27.672;2024-03-08T01:50:55;98412.41;;;3.29;100.00
58373;BME280;44177;43.356;27.672;2024-03-08T01:53:22;98404.94;;;3.07;100.00
58373;BME280;44177;43.356;27.672;2024-03-08T01:55:48;98420.06;;;3.22;100.00
58373;BME280;44177;43.356;27.672;2024-03-08T01:58:14;98413.00;;;3.26;100.00
58373;BME280;44177;43.356;27.672;2024-03-08T02:00:43;98417.53;;;3.30;100.00
58373;BME280;44177;43.356;27.672;2024-03-08T02:03:09;98397.53;;;3.12;100.00
58373;BME280;44177;43.356;27.672;2024-03-08T02:05:36;98419.09;;;3.31;100.00
58373;BME280;44177;43.356;27.672;2024-03-08T02:08:04;98415.63;;;3.31;100.00
58373;BME280;44177;43.356;27.672;2024-03-08T02:10:33;98426.97;;;3.28;100.00
58373;BME280;44177;43.356;27.672;2024-03-08T02:12:59;98411.97;;;3.22;100.00
58373;BME280;44177;43.356;27.672;2024-03-08T02:15:26;98418.19;;;3.22;100.00
58373;BME280;44177;43.356;27.672;2024-03-08T02:17:51;98401.34;;;3.11;100.00
58373;BME280;44177;43.356;27.672;2024-03-08T02:20:18;98377.31;;;2.96;100.00
58373;BME280;44177;43.356;27.672;2024-03-08T02:22:45;98416.56;;;3.21;100.00
58373;BME280;44177;43.356;27.672;2024-03-08T02:25:11;98416.56;;;3.21;100.00
58373;BME280;44177;43.356;27.672;2024-03-08T02:27:37;98392.75;;;3.09;100.00
58373;BME280;44177;43.356;27.672;2024-03-08T02:30:03;98410.78;;;3.28;100.00
58373;BME280;44177;43.356;27.672;2024-03-08T02:32:30;98410.88;;;3.23;100.00
58373;BME280;44177;43.356;27.672;2024-03-08T02:34:58;98413.56;;;3.23;100.00
58373;BME280;44177;43.356;27.672;2024-03-08T02:37:25;98411.75;;;3.18;100.00
58373;BME280;44177;43.356;27.672;2024-03-08T02:39:51;98416.41;;;3.12;100.00
58373;BME280;44177;43.356;27.672;2024-03-08T02:42:16;98417.38;;;3.22;100.00
58373;BME280;44177;43.356;27.672;2024-03-08T02:44:43;98413.16;;;3.15;100.00
58373;BME280;44177;43.356;27.672;2024-03-08T02:47:09;98408.28;;;3.18;100.00
58373;BME280;44177;43.356;27.672;2024-03-08T02:49:35;98410.09;;;3.22;100.00
58373;BME280;44177;43.356;27.672;2024-03-08T02:52:03;98417.44;;;3.16;100.00
58373;BME280;44177;43.356;27.672;2024-03-08T02:54:30;98400.41;;;3.02;100.00
58373;BME280;44177;43.356;27.672;2024-03-08T02:56:55;98417.81;;;3.10;100.00
58373;BME280;44177;43.356;27.672;2024-03-08T02:59:21;98415.97;;;3.05;100.00
58373;BME280;44177;43.356;27.672;2024-03-08T03:01:47;98414.75;;;2.97;100.00
58373;BME280;44177;43.356;27.672;2024-03-08T03:04:12;98411.31;;;2.92;100.00
58373;BME280;44177;43.356;27.672;2024-03-08T03:06:38;98404.97;;;2.82;100.00
58373;BME280;44177;43.356;27.672;2024-03-08T03:09:03;98425.31;;;2.94;100.00
58373;BME280;44177;43.356;27.672;2024-03-08T03:11:31;98417.00;;;2.90;100.00
58373;BME280;44177;43.356;27.672;2024-03-08T03:13:57;98423.03;;;2.82;100.00
58373;BME280;44177;43.356;27.672;2024-03-08T03:16:22;98419.03;;;2.79;100.00
58373;BME280;44177;43.356;27.672;2024-03-08T03:18:48;98429.59;;;2.76;100.00
58373;BME280;44177;43.356;27.672;2024-03-08T03:21:14;98437.31;;;2.82;100.00
58373;BME280;44177;43.356;27.672;2024-03-08T03:23:40;98432.97;;;2.87;100.00
58373;BME280;44177;43.356;27.672;2024-03-08T03:26:06;98420.91;;;2.79;100.00
58373;BME280;44177;43.356;27.672;2024-03-08T03:28:37;98436.13;;;2.89;100.00
58373;BME280;44177;43.356;27.672;2024-03-08T03:31:08;98383.53;;;2.53;100.00
58373;BME280;44177;43.356;27.672;2024-03-08T03:33:39;98382.28;;;2.45;100.00
58373;BME280;44177;43.356;27.672;2024-03-08T03:36:05;98434.59;;;2.82;100.00
58373;BME280;44177;43.356;27.672;2024-03-08T03:38:30;98440.81;;;2.83;100.00
58373;BME280;44177;43.356;27.672;2024-03-08T03:40:57;98421.41;;;2.62;100.00
58373;BME280;44177;43.356;27.672;2024-03-08T03:43:29;98433.94;;;2.72;100.00
58373;BME280;44177;43.356;27.672;2024-03-08T03:45:54;98436.06;;;2.75;100.00
58373;BME280;44177;43.356;27.672;2024-03-08T03:48:20;98435.25;;;2.74;100.00
58373;BME280;44177;43.356;27.672;2024-03-08T03:50:46;98416.81;;;2.62;100.00
58373;BME280;44177;43.356;27.672;2024-03-08T03:53:12;98420.47;;;2.72;100.00
58373;BME280;44177;43.356;27.672;2024-03-08T03:55:38;98428.78;;;2.75;100.00
58373;BME280;44177;43.356;27.672;2024-03-08T03:58:04;98426.53;;;2.82;100.00
58373;BME280;44177;43.356;27.672;2024-03-08T04:00:29;98421.31;;;2.91;100.00
58373;BME280;44177;43.356;27.672;2024-03-08T04:02:55;98415.91;;;2.72;100.00
58373;BME280;44177;43.356;27.672;2024-03-08T04:05:24;98428.25;;;2.73;100.00
58373;BME280;44177;43.356;27.672;2024-03-08T04:07:49;98436.34;;;2.73;100.00
58373;BME280;44177;43.356;27.672;2024-03-08T04:10:15;98433.38;;;2.75;100.00
58373;BME280;44177;43.356;27.672;2024-03-08T04:12:40;98434.47;;;2.74;100.00
58373;BME280;44177;43.356;27.672;2024-03-08T04:15:06;98442.25;;;2.75;100.00
58373;BME280;44177;43.356;27.672;2024-03-08T04:17:33;98441.09;;;2.81;100.00
58373;BME280;44177;43.356;27.672;2024-03-08T04:20:02;98438.25;;;2.73;100.00
58373;BME280;44177;43.356;27.672;2024-03-08T04:22:34;98431.25;;;2.72;100.00
58373;BME280;44177;43.356;27.672;2024-03-08T04:25:01;98435.25;;;2.74;100.00
58373;BME280;44177;43.356;27.672;2024-03-08T04:27:27;98429.63;;;2.71;100.00
58373;BME280;44177;43.356;27.672;2024-03-08T04:29:52;98438.16;;;2.78;100.00
58373;BME280;44177;43.356;27.672;2024-03-08T04:32:18;98433.31;;;2.80;100.00
58373;BME280;44177;43.356;27.672;2024-03-08T04:34:43;98436.28;;;2.78;100.00
58373;BME280;44177;43.356;27.672;2024-03-08T04:37:09;98394.53;;;2.57;100.00
58373;BME280;44177;43.356;27.672;2024-03-08T04:39:38;98420.25;;;2.68;100.00
58373;BME280;44177;43.356;27.672;2024-03-08T04:42:05;98438.75;;;2.75;100.00
58373;BME280;44177;43.356;27.672;2024-03-08T04:44:35;98433.34;;;2.56;100.00
58373;BME280;44177;43.356;27.672;2024-03-08T04:47:01;98437.78;;;2.65;100.00
58373;BME280;44177;43.356;27.672;2024-03-08T04:49:26;98433.19;;;2.66;100.00
58373;BME280;44177;43.356;27.672;2024-03-08T04:51:53;98400.56;;;2.48;100.00
58373;BME280;44177;43.356;27.672;2024-03-08T04:54:18;98437.31;;;2.82;100.00
58373;BME280;44177;43.356;27.672;2024-03-08T04:56:44;98444.88;;;2.80;100.00
58373;BME280;44177;43.356;27.672;2024-03-08T04:59:09;98439.78;;;2.79;100.00
58373;BME280;44177;43.356;27.672;2024-03-08T05:01:35;98429.41;;;2.67;100.00
58373;BME280;44177;43.356;27.672;2024-03-08T05:04:03;98443.56;;;2.78;100.00
58373;BME280;44177;43.356;27.672;2024-03-08T05:06:29;98452.00;;;2.71;100.00
58373;BME280;44177;43.356;27.672;2024-03-08T05:08:55;98454.69;;;2.71;100.00
58373;BME280;44177;43.356;27.672;2024-03-08T05:11:21;98450.84;;;2.77;100.00
58373;BME280;44177;43.356;27.672;2024-03-08T05:13:46;98453.03;;;2.75;100.00
58373;BME280;44177;43.356;27.672;2024-03-08T05:16:12;98461.63;;;2.77;100.00
58373;BME280;44177;43.356;27.672;2024-03-08T05:18:40;98468.00;;;2.87;100.00
58373;BME280;44177;43.356;27.672;2024-03-08T05:21:07;98460.25;;;2.80;100.00
58373;BME280;44177;43.356;27.672;2024-03-08T05:23:34;98460.53;;;2.78;100.00
58373;BME280;44177;43.356;27.672;2024-03-08T05:26:00;98462.63;;;2.81;100.00
58373;BME280;44177;43.356;27.672;2024-03-08T05:28:26;98446.09;;;2.69;100.00
58373;BME280;44177;43.356;27.672;2024-03-08T05:30:51;98430.47;;;2.47;100.00
58373;BME280;44177;43.356;27.672;2024-03-08T05:33:17;98475.09;;;2.77;100.00
58373;BME280;44177;43.356;27.672;2024-03-08T05:35:42;98472.34;;;2.82;100.00
58373;BME280;44177;43.356;27.672;2024-03-08T05:38:08;98477.78;;;2.77;100.00
58373;BME280;44177;43.356;27.672;2024-03-08T05:40:34;98481.81;;;2.80;100.00
58373;BME280;44177;43.356;27.672;2024-03-08T05:42:59;98478.59;;;2.78;100.00
58373;BME280;44177;43.356;27.672;2024-03-08T05:45:25;98487.41;;;2.83;100.00
58373;BME280;44177;43.356;27.672;2024-03-08T05:47:51;98485.81;;;2.82;100.00
58373;BME280;44177;43.356;27.672;2024-03-08T05:50:17;98483.34;;;2.86;100.00
58373;BME280;44177;43.356;27.672;2024-03-08T05:52:43;98485.25;;;2.86;100.00
58373;BME280;44177;43.356;27.672;2024-03-08T05:55:08;98488.50;;;2.82;100.00
58373;BME280;44177;43.356;27.672;2024-03-08T05:57:35;98491.16;;;2.88;100.00
58373;BME280;44177;43.356;27.672;2024-03-08T06:00:05;98500.59;;;2.85;100.00
58373;BME280;44177;43.356;27.672;2024-03-08T06:02:31;98490.66;;;2.80;100.00
58373;BME280;44177;43.356;27.672;2024-03-08T06:04:56;98502.44;;;2.90;100.00
58373;BME280;44177;43.356;27.672;2024-03-08T06:07:22;98508.25;;;2.97;100.00
58373;BME280;44177;43.356;27.672;2024-03-08T06:09:47;98444.13;;;2.56;100.00
58373;BME280;44177;43.356;27.672;2024-03-08T06:12:13;98493.13;;;3.01;100.00
58373;BME280;44177;43.356;27.672;2024-03-08T06:14:44;98501.16;;;3.06;100.00
58373;BME280;44177;43.356;27.672;2024-03-08T06:17:10;98500.56;;;3.09;100.00
58373;BME280;44177;43.356;27.672;2024-03-08T06:19:36;98498.19;;;3.08;100.00
58373;BME280;44177;43.356;27.672;2024-03-08T06:22:01;98487.75;;;3.01;100.00
58373;BME280;44177;43.356;27.672;2024-03-08T06:24:31;98504.16;;;3.24;100.00
58373;BME280;44177;43.356;27.672;2024-03-08T06:26:56;98510.06;;;3.26;100.00
58373;BME280;44177;43.356;27.672;2024-03-08T06:29:22;98439.00;;;2.78;100.00
58373;BME280;44177;43.356;27.672;2024-03-08T06:31:49;98501.03;;;3.16;100.00
58373;BME280;44177;43.356;27.672;2024-03-08T06:34:15;98508.47;;;3.25;100.00
58373;BME280;44177;43.356;27.672;2024-03-08T06:36:40;98512.47;;;3.27;100.00
58373;BME280;44177;43.356;27.672;2024-03-08T06:39:06;98505.38;;;3.31;100.00
58373;BME280;44177;43.356;27.672;2024-03-08T06:41:37;98511.59;;;3.32;100.00
58373;BME280;44177;43.356;27.672;2024-03-08T06:44:03;98506.94;;;3.38;100.00
58373;BME280;44177;43.356;27.672;2024-03-08T06:46:28;98483.97;;;3.21;100.00
58373;BME280;44177;43.356;27.672;2024-03-08T06:48:54;98507.16;;;3.41;100.00
58373;BME280;44177;43.356;27.672;2024-03-08T06:51:20;98507.72;;;3.38;100.00
58373;BME280;44177;43.356;27.672;2024-03-08T06:53:46;98516.13;;;3.37;100.00
58373;BME280;44177;43.356;27.672;2024-03-08T06:56:11;98500.28;;;3.30;100.00
58373;BME280;44177;43.356;27.672;2024-03-08T06:58:37;98520.66;;;3.41;100.00
58373;BME280;44177;43.356;27.672;2024-03-08T07:01:02;98512.91;;;3.35;100.00
58373;BME280;44177;43.356;27.672;2024-03-08T07:03:32;98518.00;;;3.36;100.00
58373;BME280;44177;43.356;27.672;2024-03-08T07:05:58;98516.66;;;3.39;100.00
58373;BME280;44177;43.356;27.672;2024-03-08T07:08:23;98522.91;;;3.34;100.00
58373;BME280;44177;43.356;27.672;2024-03-08T07:10:49;98523.13;;;3.19;100.00
58373;BME280;44177;43.356;27.672;2024-03-08T07:13:15;98522.31;;;3.37;100.00
58373;BME280;44177;43.356;27.672;2024-03-08T07:15:41;98522.91;;;3.34;100.00
58373;BME280;44177;43.356;27.672;2024-03-08T07:18:07;98531.78;;;3.35;100.00
58373;BME280;44177;43.356;27.672;2024-03-08T07:20:35;98500.81;;;3.13;100.00
58373;BME280;44177;43.356;27.672;2024-03-08T07:23:02;98534.47;;;3.35;100.00
58373;BME280;44177;43.356;27.672;2024-03-08T07:25:28;98530.47;;;3.32;100.00
58373;BME280;44177;43.356;27.672;2024-03-08T07:27:55;98539.13;;;3.29;100.00
58373;BME280;44177;43.356;27.672;2024-03-08T07:30:22;98487.34;;;2.89;100.00
58373;BME280;44177;43.356;27.672;2024-03-08T07:33:07;98534.84;;;3.28;100.00
58373;BME280;44177;43.356;27.672;2024-03-08T08:14:20;98537.97;;;2.92;100.00
58373;BME280;44177;43.356;27.672;2024-03-08T08:16:47;98539.09;;;3.10;100.00
58373;BME280;44177;43.356;27.672;2024-03-08T08:19:14;98538.66;;;3.27;100.00
58373;BME280;44177;43.356;27.672;2024-03-08T08:21:39;98531.78;;;3.35;100.00
58373;BME280;44177;43.356;27.672;2024-03-08T08:24:05;98529.91;;;3.35;100.00
58373;BME280;44177;43.356;27.672;2024-03-08T08:26:31;98532.63;;;3.54;100.00
58373;BME280;44177;43.356;27.672;2024-03-08T08:28:58;98538.22;;;3.58;100.00
58373;BME280;44177;43.356;27.672;2024-03-08T08:31:23;98536.97;;;3.69;100.00
58373;BME280;44177;43.356;27.672;2024-03-08T08:33:49;98540.69;;;3.73;100.00
58373;BME280;44177;43.356;27.672;2024-03-08T08:36:15;98539.59;;;3.74;100.00
58373;BME280;44177;43.356;27.672;2024-03-08T08:38:40;98537.69;;;3.75;100.00
58373;BME280;44177;43.356;27.672;2024-03-08T08:41:09;98489.59;;;3.44;100.00
58373;BME280;44177;43.356;27.672;2024-03-08T08:43:36;98528.44;;;3.62;100.00
58373;BME280;44177;43.356;27.672;2024-03-08T08:46:01;98540.69;;;3.73;100.00
58373;BME280;44177;43.356;27.672;2024-03-08T08:48:27;98542.22;;;3.79;100.00
58373;BME280;44177;43.356;27.672;2024-03-08T08:50:54;98541.56;;;3.88;100.00
58373;BME280;44177;43.356;27.672;2024-03-08T08:53:20;98538.56;;;3.89;100.00
58373;BME280;44177;43.356;27.672;2024-03-08T08:55:47;98542.56;;;3.92;100.00
58373;BME280;44177;43.356;27.672;2024-03-08T08:58:12;98531.50;;;3.93;100.00
58373;BME280;44177;43.356;27.672;2024-03-08T09:00:39;98539.81;;;3.97;100.00
58373;BME280;44177;43.356;27.672;2024-03-08T09:03:04;98539.19;;;4.00;100.00
58373;BME280;44177;43.356;27.672;2024-03-08T09:05:32;98539.81;;;3.97;100.00
58373;BME280;44177;43.356;27.672;2024-03-08T09:07:57;98540.28;;;3.99;100.00
58373;BME280;44177;43.356;27.672;2024-03-08T09:10:23;98546.63;;;4.08;100.00
58373;BME280;44177;43.356;27.672;2024-03-08T09:12:48;98523.19;;;3.90;100.00
58373;BME280;44177;43.356;27.672;2024-03-08T09:15:14;98552.63;;;4.05;100.00
58373;BME280;44177;43.356;27.672;2024-03-08T09:17:40;98547.44;;;4.09;100.00
58373;BME280;44177;43.356;27.672;2024-03-08T09:20:09;98550.34;;;4.13;100.00
58373;BME280;44177;43.356;27.672;2024-03-08T09:22:35;98550.84;;;4.15;100.00
58373;BME280;44177;43.356;27.672;2024-03-08T09:25:01;98506.97;;;3.90;100.00
58373;BME280;44177;43.356;27.672;2024-03-08T09:27:27;98543.25;;;4.17;100.00
58373;BME280;44177;43.356;27.672;2024-03-08T09:29:54;98551.44;;;4.11;100.00
58373;BME280;44177;43.356;27.672;2024-03-08T09:32:20;98541.00;;;4.05;100.00
58373;BME280;44177;43.356;27.672;2024-03-08T09:34:45;98556.34;;;4.09;100.00
58373;BME280;44177;43.356;27.672;2024-03-08T09:37:11;98545.41;;;4.01;100.00
58373;BME280;44177;43.356;27.672;2024-03-08T09:39:36;98551.44;;;4.11;100.00
58373;BME280;44177;43.356;27.672;2024-03-08T09:42:02;98554.34;;;4.15;100.00
58373;BME280;44177;43.356;27.672;2024-03-08T09:44:27;98550.72;;;4.06;100.00
58373;BME280;44177;43.356;27.672;2024-03-08T09:46:55;98547.72;;;4.07;100.00
58373;BME280;44177;43.356;27.672;2024-03-08T09:49:20;98548.38;;;3.99;100.00
58373;BME280;44177;43.356;27.672;2024-03-08T09:51:46;98552.22;;;3.98;100.00
58373;BME280;44177;43.356;27.672;2024-03-08T09:54:12;98552.31;;;4.07;100.00
58373;BME280;44177;43.356;27.672;2024-03-08T09:56:39;98506.72;;;3.72;100.00
58373;BME280;44177;43.356;27.672;2024-03-08T09:59:09;98556.03;;;4.11;100.00
58373;BME280;44177;43.356;27.672;2024-03-08T10:01:53;98532.41;;;4.03;100.00
58373;BME280;44177;43.356;27.672;2024-03-08T10:04:22;98558.94;;;4.15;100.00
58373;BME280;44177;43.356;27.672;2024-03-08T10:06:47;98561.22;;;4.07;100.00
58373;BME280;44177;43.356;27.672;2024-03-08T10:09:14;98566.47;;;4.18;100.00
58373;BME280;44177;43.356;27.672;2024-03-08T10:11:43;98564.34;;;4.15;100.00
58373;BME280;44177;43.356;27.672;2024-03-08T10:14:09;98549.94;;;4.05;100.00
58373;BME280;44177;43.356;27.672;2024-03-08T10:16:36;98562.50;;;4.29;100.00
58373;BME280;44177;43.356;27.672;2024-03-08T10:19:01;98559.72;;;4.34;100.00
58373;BME280;44177;43.356;27.672;2024-03-08T10:21:27;98544.59;;;4.33;100.00
58373;BME280;44177;43.356;27.672;2024-03-08T10:23:53;98541.91;;;4.33;100.00
58373;BME280;44177;43.356;27.672;2024-03-08T10:26:19;98554.81;;;4.36;100.00
58373;BME280;44177;43.356;27.672;2024-03-08T10:28:48;98537.31;;;4.34;100.00
58373;BME280;44177;43.356;27.672;2024-03-08T10:31:17;98536.53;;;4.47;100.00
58373;BME280;44177;43.356;27.672;2024-03-08T10:33:43;98520.28;;;4.33;100.00
58373;BME280;44177;43.356;27.672;2024-03-08T10:36:10;98563.06;;;4.59;100.00
58373;BME280;44177;43.356;27.672;2024-03-08T10:38:40;98547.78;;;4.68;100.00
58373;BME280;44177;43.356;27.672;2024-03-08T10:41:07;98539.94;;;4.53;100.00
58373;BME280;44177;43.356;27.672;2024-03-08T10:43:51;98557.50;;;4.69;100.00
58373;BME280;44177;43.356;27.672;2024-03-08T10:49:25;98550.97;;;4.70;100.00
58373;BME280;44177;43.356;27.672;2024-03-08T10:51:56;98548.75;;;4.58;100.00
58373;BME280;44177;43.356;27.672;2024-03-08T10:54:24;98547.56;;;4.65;100.00
58373;BME280;44177;43.356;27.672;2024-03-08T10:56:51;98548.16;;;4.62;100.00
58373;BME280;44177;43.356;27.672;2024-03-08T10:59:18;98539.66;;;4.68;100.00
58373;BME280;44177;43.356;27.672;2024-03-08T11:01:44;98518.22;;;4.58;100.00
58373;BME280;44177;43.356;27.672;2024-03-08T11:04:10;98542.84;;;4.70;100.00
58373;BME280;44177;43.356;27.672;2024-03-08T11:09:32;98552.19;;;4.78;100.00
58373;BME280;44177;43.356;27.672;2024-03-08T11:14:43;98539.38;;;4.84;100.00
58373;BME280;44177;43.356;27.672;2024-03-08T11:17:09;98532.88;;;4.85;100.00
58373;BME280;44177;43.356;27.672;2024-03-08T11:19:35;98530.34;;;4.74;100.00
58373;BME280;44177;43.356;27.672;2024-03-08T11:22:02;98544.38;;;4.77;100.00
58373;BME280;44177;43.356;27.672;2024-03-08T11:24:36;98534.88;;;4.79;100.00
58373;BME280;44177;43.356;27.672;2024-03-08T11:27:03;98542.56;;;4.86;100.00
58373;BME280;44177;43.356;27.672;2024-03-08T11:32:17;98496.59;;;4.86;100.00
58373;BME280;44177;43.356;27.672;2024-03-08T11:34:46;98484.31;;;4.80;100.00
58373;BME280;44177;43.356;27.672;2024-03-08T11:37:20;98489.31;;;4.72;100.00
58373;BME280;44177;43.356;27.672;2024-03-08T11:39:55;98511.94;;;4.90;100.00
58373;BME280;44177;43.356;27.672;2024-03-08T11:42:30;98541.78;;;4.99;100.00
58373;BME280;44177;43.356;27.672;2024-03-08T11:44:56;98487.94;;;4.61;100.00
58373;BME280;44177;43.356;27.672;2024-03-08T11:47:22;98536.16;;;4.82;100.00
58373;BME280;44177;43.356;27.672;2024-03-08T11:49:48;98534.88;;;4.79;100.00
58373;BME280;44177;43.356;27.672;2024-03-08T11:52:18;98470.97;;;4.27;100.00
58373;BME280;44177;43.356;27.672;2024-03-08T11:54:53;98532.88;;;4.71;100.00
58373;BME280;44177;43.356;27.672;2024-03-08T11:57:22;98498.09;;;4.50;100.00
58373;BME280;44177;43.356;27.672;2024-03-08T11:59:52;98523.66;;;4.72;100.00
58373;BME280;44177;43.356;27.672;2024-03-08T12:02:18;98537.78;;;4.83;100.00
58373;BME280;44177;43.356;27.672;2024-03-08T12:04:44;98528.25;;;4.85;100.00
58373;BME280;44177;43.356;27.672;2024-03-08T12:07:11;98533.47;;;4.96;100.00
58373;BME280;44177;43.356;27.672;2024-03-08T12:09:40;98520.16;;;4.99;100.00
58373;BME280;44177;43.356;27.672;2024-03-08T12:12:07;98524.22;;;5.11;100.00
58373;BME280;44177;43.356;27.672;2024-03-08T12:14:33;98512.25;;;5.03;100.00
58373;BME280;44177;43.356;27.672;2024-03-08T12:16:59;98527.75;;;4.97;100.00
58373;BME280;44177;43.356;27.672;2024-03-08T12:19:27;98459.56;;;4.58;100.00
58373;BME280;44177;43.356;27.672;2024-03-08T12:21:54;98523.06;;;4.89;100.00
58373;BME280;44177;43.356;27.672;2024-03-08T12:24:20;98523.38;;;4.87;100.00
58373;BME280;44177;43.356;27.672;2024-03-08T12:26:47;98526.66;;;4.84;100.00
58373;BME280;44177;43.356;27.672;2024-03-08T12:29:26;98527.16;;;5.00;100.00
58373;BME280;44177;43.356;27.672;2024-03-08T12:31:58;98508.31;;;4.95;100.00
58373;BME280;44177;43.356;27.672;2024-03-08T12:34:26;98519.13;;;4.95;100.00
58373;BME280;44177;43.356;27.672;2024-03-08T12:36:55;98522.06;;;4.85;100.00
58373;BME280;44177;43.356;27.672;2024-03-08T12:39:21;98526.47;;;4.95;100.00
58373;BME280;44177;43.356;27.672;2024-03-08T12:41:52;98524.34;;;4.92;100.00
58373;BME280;44177;43.356;27.672;2024-03-08T12:44:18;98539.66;;;4.96;100.00
58373;BME280;44177;43.356;27.672;2024-03-08T12:46:47;98524.53;;;4.95;100.00
58373;BME280;44177;43.356;27.672;2024-03-08T12:49:13;98525.13;;;5.06;100.00
58373;BME280;44177;43.356;27.672;2024-03-08T12:51:45;98505.72;;;4.90;100.00
58373;BME280;44177;43.356;27.672;2024-03-08T12:54:10;98502.72;;;4.92;100.00
58373;BME280;44177;43.356;27.672;2024-03-08T12:56:36;98517.91;;;5.15;100.00
58373;BME280;44177;43.356;27.672;2024-03-08T12:59:04;98489.50;;;5.04;100.00
58373;BME280;44177;43.356;27.672;2024-03-08T13:01:30;98519.91;;;5.24;99.81
58373;BME280;44177;43.356;27.672;2024-03-08T13:03:57;98517.22;;;5.24;99.46
58373;BME280;44177;43.356;27.672;2024-03-08T13:06:24;98518.50;;;5.26;100.00
58373;BME280;44177;43.356;27.672;2024-03-08T13:08:53;98514.19;;;5.39;100.00
58373;BME280;44177;43.356;27.672;2024-03-08T13:11:19;98517.25;;;5.46;99.90
58373;BME280;44177;43.356;27.672;2024-03-08T13:13:45;98514.28;;;5.48;100.00
58373;BME280;44177;43.356;27.672;2024-03-08T13:16:12;98509.84;;;5.52;99.92
58373;BME280;44177;43.356;27.672;2024-03-08T13:18:41;98513.13;;;5.49;99.74
58373;BME280;44177;43.356;27.672;2024-03-08T13:21:10;98515.38;;;5.47;97.23
58373;BME280;44177;43.356;27.672;2024-03-08T13:23:37;98519.19;;;5.46;98.32
58373;BME280;44177;43.356;27.672;2024-03-08T13:26:09;98518.56;;;5.49;96.45
58373;BME280;44177;43.356;27.672;2024-03-08T13:28:36;98517.06;;;5.43;95.31
58373;BME280;44177;43.356;27.672;2024-03-08T13:31:05;98516.47;;;5.46;96.08
58373;BME280;44177;43.356;27.672;2024-03-08T13:33:38;98516.88;;;5.39;94.99
58373;BME280;44177;43.356;27.672;2024-03-08T13:36:05;98524.00;;;5.35;94.58
58373;BME280;44177;43.356;27.672;2024-03-08T13:38:32;98517.91;;;5.29;94.43